createdAt,value
2023-01-01T00:00:16.601Z,11.80
2023-01-01T00:03:21.669Z,10.90
2023-01-01T00:06:25.184Z,12.03
2023-01-01T00:09:45.303Z,13.07
2023-01-01T00:12:48.071Z,11.27
2023-01-01T00:15:52.080Z,9.53
2023-01-01T00:19:07.053Z,8.90
2023-01-01T00:22:52.145Z,8.83
2023-01-01T00:25:36.485Z,7.57
2023-01-01T00:28:39.465Z,8.83
2023-01-01T00:31:43.580Z,8.90
2023-01-01T00:34:46.275Z,9.57
2023-01-01T00:37:49.014Z,8.87
2023-01-01T00:40:51.664Z,8.07
2023-01-01T00:43:54.365Z,7.00
2023-01-01T00:46:58.383Z,6.90
2023-01-01T00:50:13.361Z,6.70
2023-01-01T00:53:16.266Z,4.20
2023-01-01T00:56:18.970Z,4.07
2023-01-01T00:59:26.891Z,4.17
2023-01-01T01:02:32.900Z,3.13
2023-01-01T01:05:37.320Z,3.57
2023-01-01T01:08:44.865Z,3.63
2023-01-01T01:11:47.834Z,3.33
2023-01-01T01:14:50.531Z,2.97
2023-01-01T01:17:54.555Z,3.03
2023-01-01T01:21:07.476Z,3.90
2023-01-01T01:24:10.953Z,3.53
2023-01-01T01:27:20.853Z,3.70
2023-01-01T01:30:23.586Z,3.70
2023-01-01T01:33:27.756Z,3.77
2023-01-01T01:36:30.826Z,3.40
2023-01-01T01:39:36.384Z,3.90
2023-01-01T01:42:39.101Z,3.77
2023-01-01T01:45:45.017Z,3.87
2023-01-01T01:48:52.400Z,3.90
2023-01-01T01:51:58.047Z,3.73
2023-01-01T01:55:02.578Z,4.30
2023-01-01T01:58:06.773Z,4.23
2023-01-01T02:01:10.013Z,4.17
2023-01-01T02:04:18.063Z,4.20
2023-01-01T02:07:22.947Z,5.10
2023-01-01T02:10:34.130Z,5.13
2023-01-01T02:13:36.798Z,5.67
2023-01-01T02:16:47.576Z,5.23
2023-01-01T02:20:09.705Z,6.30
2023-01-01T02:23:44.706Z,6.07
2023-01-01T02:27:02.236Z,6.90
2023-01-01T02:30:12.275Z,7.13
2023-01-01T02:33:19.657Z,6.80
2023-01-01T02:36:31.116Z,7.70
2023-01-01T02:39:36.221Z,7.53
2023-01-01T02:42:39.083Z,7.17
2023-01-01T02:45:43.354Z,7.60
2023-01-01T02:48:48.001Z,7.40
2023-01-01T02:52:12.916Z,8.13
2023-01-01T02:55:28.724Z,8.97
2023-01-01T02:58:58.348Z,7.70
2023-01-01T03:02:10.864Z,7.77
2023-01-01T03:05:22.061Z,7.00
2023-01-01T03:08:42.013Z,6.97
2023-01-01T03:11:51.820Z,6.30
2023-01-01T03:15:02.168Z,5.27
2023-01-01T03:18:09.396Z,5.47
2023-01-01T03:24:27.098Z,5.63
2023-01-01T03:27:37.688Z,5.77
2023-01-01T03:30:42.829Z,5.70
2023-01-01T03:34:01.064Z,6.17
2023-01-01T03:37:16.868Z,5.27
2023-01-01T03:40:22.196Z,5.03
2023-01-01T03:43:40.681Z,5.73
2023-01-01T03:46:43.513Z,5.33
2023-01-01T03:49:48.301Z,5.30
2023-01-01T03:52:58.535Z,5.47
2023-01-01T03:56:09.278Z,5.87
2023-01-01T03:59:18.692Z,6.30
2023-01-01T04:02:34.045Z,5.30
2023-01-01T04:05:41.727Z,5.23
2023-01-01T04:08:44.438Z,5.60
2023-01-01T04:12:07.444Z,5.73
2023-01-01T04:15:10.745Z,6.37
2023-01-01T04:18:13.393Z,5.30
2023-01-01T04:21:23.420Z,5.53
2023-01-01T04:24:26.973Z,5.67
2023-01-01T04:27:29.783Z,4.90
2023-01-01T04:30:32.757Z,3.73
2023-01-01T04:33:37.935Z,3.97
2023-01-01T04:36:44.535Z,4.07
2023-01-01T04:39:47.275Z,3.73
2023-01-01T04:43:05.316Z,3.77
2023-01-01T04:46:08.039Z,3.70
2023-01-01T04:49:13.747Z,4.20
2023-01-01T04:52:17.755Z,4.30
2023-01-01T04:55:23.462Z,3.20
2023-01-01T04:58:26.106Z,2.70
2023-01-01T05:01:30.183Z,2.27
2023-01-01T05:04:33.385Z,2.30
2023-01-01T05:07:40.468Z,2.47
2023-01-01T05:10:43.842Z,2.40
2023-01-01T05:13:49.450Z,2.67
2023-01-01T05:16:57.960Z,2.20
2023-01-01T05:20:03.832Z,1.63
2023-01-01T05:23:09.161Z,2.10
2023-01-01T05:26:12.877Z,1.90
2023-01-01T05:29:17.243Z,1.90
2023-01-01T05:32:26.219Z,2.07
2023-01-01T05:35:28.894Z,2.23
2023-01-01T05:38:36.237Z,1.70
2023-01-01T05:41:41.247Z,1.70
2023-01-01T05:44:43.875Z,1.93
2023-01-01T05:47:46.894Z,1.87
2023-01-01T05:50:49.552Z,1.90
2023-01-01T05:53:54.794Z,1.80
2023-01-01T05:57:05.848Z,1.87
2023-01-01T06:00:16.879Z,1.90
2023-01-01T06:03:19.734Z,1.90
2023-01-01T06:06:25.017Z,1.80
2023-01-01T06:09:34.501Z,1.77
2023-01-01T06:12:41.780Z,1.63
2023-01-01T06:15:44.986Z,1.73
2023-01-01T06:18:47.731Z,1.90
2023-01-01T06:21:50.482Z,1.50
2023-01-01T06:24:54.436Z,1.60
2023-01-01T06:28:00.202Z,1.83
2023-01-01T06:31:04.147Z,1.73
2023-01-01T06:34:10.164Z,1.77
2023-01-01T06:37:12.776Z,1.73
2023-01-01T06:40:16.889Z,1.50
2023-01-01T06:43:19.531Z,1.60
2023-01-01T06:46:26.906Z,1.80
2023-01-01T06:49:31.851Z,1.77
2023-01-01T06:52:37.520Z,1.50
2023-01-01T06:55:54.936Z,1.73
2023-01-01T06:59:02.555Z,1.80
2023-01-01T07:02:05.349Z,1.97
2023-01-01T07:05:08.967Z,1.60
2023-01-01T07:08:18.410Z,1.77
2023-01-01T07:11:22.777Z,1.77
2023-01-01T07:14:25.456Z,1.70
2023-01-01T07:17:28.307Z,1.27
2023-01-01T07:20:30.998Z,1.50
2023-01-01T07:23:36.163Z,1.60
2023-01-01T07:26:41.051Z,1.73
2023-01-01T07:29:46.121Z,1.87
2023-01-01T07:32:48.763Z,1.80
2023-01-01T07:35:51.531Z,1.87
2023-01-01T07:38:54.195Z,1.67
2023-01-01T07:41:58.086Z,1.60
2023-01-01T07:45:08.307Z,1.80
2023-01-01T07:48:15.545Z,2.13
2023-01-01T07:51:18.266Z,1.80
2023-01-01T07:54:20.913Z,1.60
2023-01-01T07:57:24.870Z,2.20
2023-01-01T08:00:30.100Z,1.77
2023-01-01T08:03:32.823Z,2.40
2023-01-01T08:06:38.588Z,2.00
2023-01-01T08:09:41.568Z,2.00
2023-01-01T08:12:45.512Z,1.77
2023-01-01T08:15:48.166Z,1.90
2023-01-01T08:18:53.965Z,1.63
2023-01-01T08:21:56.983Z,2.00
2023-01-01T08:24:59.653Z,1.60
2023-01-01T08:28:03.661Z,1.97
2023-01-01T08:31:06.666Z,1.57
2023-01-01T08:34:09.420Z,1.60
2023-01-01T08:37:14.502Z,1.83
2023-01-01T08:40:17.124Z,1.83
2023-01-01T08:43:21.159Z,1.80
2023-01-01T08:46:23.907Z,1.70
2023-01-01T08:49:27.620Z,2.20
2023-01-01T08:52:30.364Z,1.90
2023-01-01T08:55:38.284Z,1.60
2023-01-01T08:58:43.119Z,1.90
2023-01-01T09:01:49.026Z,1.70
2023-01-01T09:04:53.980Z,2.00
2023-01-01T09:07:56.669Z,1.70
2023-01-01T09:11:00.570Z,1.93
2023-01-01T09:14:20.018Z,1.70
2023-01-01T09:17:22.694Z,1.87
2023-01-01T09:20:28.829Z,1.97
2023-01-01T09:23:31.494Z,2.50
2023-01-01T09:26:34.370Z,1.50
2023-01-01T09:29:38.313Z,2.30
2023-01-01T09:32:41.041Z,1.90
2023-01-01T09:35:44.504Z,2.07
2023-01-01T09:38:52.455Z,1.97
2023-01-01T09:42:10.956Z,1.60
2023-01-01T09:45:23.340Z,1.97
2023-01-01T09:48:27.430Z,1.93
2023-01-01T09:51:34.802Z,2.70
2023-01-01T09:54:40.879Z,3.57
2023-01-01T09:57:43.681Z,4.23
2023-01-01T10:00:53.710Z,2.00
2023-01-01T10:04:08.363Z,2.07
2023-01-01T10:07:19.162Z,1.97
2023-01-01T10:10:33.471Z,2.03
2023-01-01T10:13:40.728Z,2.20
2023-01-01T10:16:48.186Z,2.07
2023-01-01T10:19:53.235Z,2.03
2023-01-01T10:23:00.752Z,2.13
2023-01-01T10:26:09.551Z,1.90
2023-01-01T10:29:17.659Z,2.10
2023-01-01T10:32:27.724Z,2.60
2023-01-01T10:35:42.843Z,2.37
2023-01-01T10:38:45.981Z,2.43
2023-01-01T10:41:49.225Z,2.10
2023-01-01T10:44:53.578Z,2.00
2023-01-01T10:48:15.166Z,2.17
2023-01-01T10:51:20.440Z,2.30
2023-01-01T10:54:32.660Z,2.47
2023-01-01T10:57:40.389Z,2.20
2023-01-01T11:00:43.238Z,2.00
2023-01-01T11:04:01.538Z,1.90
2023-01-01T11:07:08.266Z,2.47
2023-01-01T11:10:18.713Z,1.70
2023-01-01T11:13:22.660Z,2.03
2023-01-01T11:16:26.728Z,1.70
2023-01-01T11:19:33.637Z,1.73
2023-01-01T11:22:39.349Z,2.30
2023-01-01T11:25:58.158Z,2.33
2023-01-01T11:29:03.439Z,2.57
2023-01-01T11:32:08.879Z,2.40
2023-01-01T11:35:20.219Z,2.03
2023-01-01T11:38:29.898Z,2.03
2023-01-01T11:41:43.201Z,2.30
2023-01-01T11:44:48.693Z,1.83
2023-01-01T11:47:56.657Z,1.90
2023-01-01T11:51:03.637Z,2.53
2023-01-01T11:54:13.143Z,2.00
2023-01-01T11:57:23.092Z,1.90
2023-01-01T12:00:25.980Z,2.10
2023-01-01T12:03:34.331Z,2.03
2023-01-01T12:06:46.329Z,2.20
2023-01-01T12:09:57.533Z,2.10
2023-01-01T12:13:05.609Z,1.93
2023-01-01T12:16:13.632Z,1.90
2023-01-01T12:19:23.631Z,9.13
2023-01-01T12:22:27.960Z,2.13
2023-01-01T12:25:37.224Z,3.27
2023-01-01T12:28:49.138Z,2.50
2023-01-01T12:32:04.476Z,1.90
2023-01-01T12:35:23.745Z,2.07
2023-01-01T12:38:43.224Z,1.97
2023-01-01T12:41:55.021Z,3.67
2023-01-01T12:45:14.485Z,4.77
2023-01-01T12:48:34.822Z,1.90
2023-01-01T12:51:48.295Z,1.77
2023-01-01T12:55:35.679Z,2.13
2023-01-01T12:58:44.835Z,2.87
2023-01-01T13:01:49.228Z,3.70
2023-01-01T13:04:56.324Z,2.20
2023-01-01T13:08:04.244Z,2.00
2023-01-01T13:11:08.803Z,2.60
2023-01-01T13:14:13.282Z,2.33
2023-01-01T13:17:21.648Z,2.00
2023-01-01T13:20:26.560Z,2.27
2023-01-01T13:24:03.841Z,2.00
2023-01-01T13:27:11.257Z,1.70
2023-01-01T13:30:47.747Z,2.10
2023-01-01T13:34:20.327Z,2.30
2023-01-01T13:37:45.168Z,2.00
2023-01-01T13:40:52.695Z,2.40
2023-01-01T13:44:13.809Z,2.43
2023-01-01T13:47:34.274Z,3.60
2023-01-01T13:50:46.205Z,2.43
2023-01-01T13:54:08.215Z,3.40
2023-01-01T13:57:32.776Z,4.37
2023-01-01T14:00:46.542Z,3.53
2023-01-01T14:03:57.471Z,5.23
2023-01-01T14:07:32.869Z,4.23
2023-01-01T14:10:33.217Z,4.20
2023-01-01T14:13:41.829Z,12.57
2023-01-01T14:16:44.588Z,2.77
2023-01-01T14:19:48.739Z,2.00
2023-01-01T14:22:53.707Z,1.93
2023-01-01T14:25:56.530Z,1.93
2023-01-01T14:29:01.125Z,2.27
2023-01-01T14:32:14.964Z,2.13
2023-01-01T14:35:19.033Z,2.10
2023-01-01T14:38:27.157Z,2.80
2023-01-01T14:41:32.289Z,2.53
2023-01-01T14:44:37.616Z,2.60
2023-01-01T14:47:40.324Z,1.63
2023-01-01T14:50:49.069Z,2.30
2023-01-01T14:53:53.978Z,2.43
2023-01-01T14:56:56.854Z,1.90
2023-01-01T14:59:59.784Z,2.80
2023-01-01T15:03:13.908Z,2.47
2023-01-01T15:06:18.759Z,2.90
2023-01-01T15:09:21.554Z,3.00
2023-01-01T15:12:24.886Z,3.93
2023-01-01T15:15:42.516Z,4.00
2023-01-01T15:18:46.998Z,3.60
2023-01-01T15:21:51.088Z,2.57
2023-01-01T15:24:54.903Z,2.10
2023-01-01T15:27:58.025Z,2.30
2023-01-01T15:31:00.960Z,2.20
2023-01-01T15:34:04.871Z,6.30
2023-01-01T15:37:15.718Z,5.27
2023-01-01T15:40:40.539Z,4.57
2023-01-01T15:43:43.208Z,4.57
2023-01-01T15:46:48.348Z,3.90
2023-01-01T15:49:51.087Z,3.03
2023-01-01T15:52:59.076Z,3.00
2023-01-01T15:56:04.864Z,3.33
2023-01-01T15:59:22.995Z,3.23
2023-01-01T16:02:31.234Z,5.03
2023-01-01T16:05:34.061Z,5.37
2023-01-01T16:08:38.314Z,4.70
2023-01-01T16:11:41.139Z,30.43
2023-01-01T16:14:43.831Z,3.80
2023-01-01T16:17:47.249Z,4.37
2023-01-01T16:20:50.059Z,3.70
2023-01-01T16:23:54.466Z,4.40
2023-01-01T16:26:57.370Z,4.53
2023-01-01T16:30:00.148Z,4.77
2023-01-01T16:33:16.446Z,5.10
2023-01-01T16:36:19.226Z,6.07
2023-01-01T16:39:23.362Z,5.50
2023-01-01T16:42:27.293Z,6.23
2023-01-01T16:45:29.983Z,6.63
2023-01-01T16:48:32.612Z,11.73
2023-01-01T16:51:35.564Z,9.30
2023-01-01T16:54:40.215Z,6.30
2023-01-01T16:57:43.478Z,8.33
2023-01-01T17:00:47.390Z,6.87
2023-01-01T17:03:50.655Z,7.30
2023-01-01T17:06:53.967Z,6.57
2023-01-01T17:09:58.132Z,3.43
2023-01-01T17:13:02.923Z,2.93
2023-01-01T17:16:06.220Z,4.53
2023-01-01T17:19:15.073Z,8.53
2023-01-01T17:22:21.272Z,6.90
2023-01-01T17:25:25.378Z,6.03
2023-01-01T17:28:28.168Z,6.60
2023-01-01T17:31:31.227Z,6.40
2023-01-01T17:34:33.979Z,4.90
2023-01-01T17:37:39.884Z,3.00
2023-01-01T17:40:46.247Z,4.13
2023-01-01T17:43:50.677Z,3.47
2023-01-01T17:46:55.298Z,4.27
2023-01-01T17:49:58.013Z,7.67
2023-01-01T17:53:00.717Z,4.07
2023-01-01T17:56:05.572Z,7.53
2023-01-01T17:59:09.392Z,3.80
2023-01-01T18:02:13.275Z,4.20
2023-01-01T18:05:15.991Z,4.90
2023-01-01T18:08:28.047Z,8.37
2023-01-01T18:11:33.884Z,8.00
2023-01-01T18:14:38.867Z,5.23
2023-01-01T18:17:41.509Z,15.00
2023-01-01T18:20:46.413Z,13.23
2023-01-01T18:23:50.423Z,7.40
2023-01-01T18:26:57.148Z,24.30
2023-01-01T18:30:02.612Z,10.17
2023-01-01T18:33:06.033Z,8.00
2023-01-01T18:36:10.406Z,5.30
2023-01-01T18:39:16.881Z,5.47
2023-01-01T18:42:35.572Z,13.67
2023-01-01T18:45:39.075Z,8.63
2023-01-01T18:48:43.052Z,10.63
2023-01-01T18:51:48.941Z,9.87
2023-01-01T18:55:12.909Z,20.60
2023-01-01T18:58:19.900Z,16.10
2023-01-01T19:01:24.452Z,19.67
2023-01-01T19:04:27.365Z,7.97
2023-01-01T19:07:37.391Z,5.60
2023-01-01T19:10:41.758Z,10.67
2023-01-01T19:13:45.957Z,12.07
2023-01-01T19:16:50.282Z,7.17
2023-01-01T19:19:53.371Z,11.20
2023-01-01T19:22:57.539Z,10.80
2023-01-01T19:26:03.932Z,8.00
2023-01-01T19:29:13.987Z,6.07
2023-01-01T19:32:17.106Z,6.73
2023-01-01T19:35:19.931Z,7.07
2023-01-01T19:38:23.030Z,7.17
2023-01-01T19:41:26.064Z,6.33
2023-01-01T19:44:32.519Z,6.63
2023-01-01T19:47:38.200Z,7.30
2023-01-01T19:50:40.876Z,7.20
2023-01-01T19:53:43.580Z,11.50
2023-01-01T19:56:47.396Z,8.90
2023-01-01T19:59:51.450Z,9.27
2023-01-01T20:02:54.753Z,9.40
2023-01-01T20:05:57.827Z,6.77
2023-01-01T20:09:00.501Z,8.67
2023-01-01T20:12:03.884Z,5.90
2023-01-01T20:15:09.012Z,5.93
2023-01-01T20:18:12.117Z,7.83
2023-01-01T20:21:32.313Z,8.63
2023-01-01T20:24:35.015Z,10.87
2023-01-01T20:27:58.215Z,8.50
2023-01-01T20:31:02.255Z,9.47
2023-01-01T20:34:04.897Z,8.57
2023-01-01T20:37:25.144Z,8.10
2023-01-01T20:40:27.761Z,8.87
2023-01-01T20:43:30.572Z,6.20
2023-01-01T20:46:36.052Z,5.83
2023-01-01T20:49:39.041Z,5.97
2023-01-01T20:52:41.673Z,7.37
2023-01-01T20:55:44.483Z,8.97
2023-01-01T20:58:50.168Z,7.87
2023-01-01T21:01:56.353Z,8.73
2023-01-01T21:04:59.082Z,8.23
2023-01-01T21:08:02.158Z,7.50
2023-01-01T21:11:05.266Z,8.57
2023-01-01T21:14:07.973Z,7.43
2023-01-01T21:17:22.045Z,6.40
2023-01-01T21:20:26.747Z,6.83
2023-01-01T21:23:30.908Z,7.47
2023-01-01T21:26:36.981Z,6.90
2023-01-01T21:29:44.967Z,9.07
2023-01-01T21:32:50.658Z,7.30
2023-01-01T21:35:53.507Z,5.50
2023-01-01T21:38:57.441Z,6.70
2023-01-01T21:42:10.348Z,7.20
2023-01-01T21:45:19.974Z,6.40
2023-01-01T21:48:29.835Z,6.03
2023-01-01T21:51:34.354Z,6.80
2023-01-01T21:54:39.505Z,7.17
2023-01-01T21:57:42.465Z,6.83
2023-01-01T22:00:45.179Z,7.60
2023-01-01T22:03:59.179Z,6.63
2023-01-01T22:07:30.783Z,6.87
2023-01-01T22:10:35.239Z,6.90
2023-01-01T22:13:37.938Z,7.23
2023-01-01T22:16:40.723Z,7.37
2023-01-01T22:19:46.130Z,7.33
2023-01-01T22:22:49.281Z,7.90
2023-01-01T22:25:53.323Z,8.27
2023-01-01T22:29:00.889Z,9.10
2023-01-01T22:32:13.724Z,8.53
2023-01-01T22:35:26.768Z,6.97
2023-01-01T22:38:33.946Z,8.90
2023-01-01T22:41:36.630Z,8.37
2023-01-01T22:44:39.361Z,9.87
2023-01-01T22:47:44.600Z,9.50
2023-01-01T22:50:49.377Z,9.43
2023-01-01T22:53:51.987Z,9.57
2023-01-01T22:56:54.639Z,8.83
2023-01-01T23:00:04.234Z,8.17
2023-01-01T23:03:09.119Z,9.13
2023-01-01T23:06:13.683Z,9.40
2023-01-01T23:09:16.515Z,8.93
2023-01-01T23:12:19.179Z,9.23
2023-01-01T23:15:39.296Z,9.33
2023-01-01T23:18:42.066Z,8.63
2023-01-01T23:21:46.571Z,8.63
2023-01-01T23:24:52.072Z,7.33
2023-01-01T23:27:55.647Z,7.37
2023-01-01T23:30:59.628Z,6.90
2023-01-01T23:34:02.679Z,8.60
2023-01-01T23:37:06.836Z,5.67
2023-01-01T23:40:12.825Z,7.33
2023-01-01T23:43:15.506Z,8.07
2023-01-01T23:46:19.632Z,7.57
2023-01-01T23:49:23.361Z,7.13
2023-01-01T23:52:27.573Z,7.47
2023-01-01T23:55:30.209Z,7.43
2023-01-01T23:58:32.875Z,6.40
